createdAt,value
2019-03-28T00:01:30.284Z,88.32
2019-03-28T00:04:00.176Z,88.34
2019-03-28T00:06:30.062Z,88.37
2019-03-28T00:08:59.919Z,88.40
2019-03-28T00:11:29.453Z,88.47
2019-03-28T00:13:59.189Z,88.52
2019-03-28T00:16:29.049Z,88.45
2019-03-28T00:18:58.562Z,88.48
2019-03-28T00:21:29.111Z,88.47
2019-03-28T00:24:03.570Z,88.54
2019-03-28T00:26:33.351Z,88.51
2019-03-28T00:29:02.797Z,88.42
2019-03-28T00:31:32.175Z,88.38
2019-03-28T00:34:01.569Z,88.43
2019-03-28T00:36:32.017Z,88.49
2019-03-28T00:39:01.620Z,88.47
2019-03-28T00:41:31.249Z,88.49
2019-03-28T00:44:00.996Z,88.57
2019-03-28T00:46:30.433Z,88.51
2019-03-28T00:49:00.131Z,88.59
2019-03-28T00:51:32.758Z,88.59
2019-03-28T00:54:02.506Z,88.60
2019-03-28T00:56:44.911Z,88.63
2019-03-28T00:59:03.516Z,88.61
2019-03-28T01:01:33.360Z,88.58
2019-03-28T01:04:03.167Z,88.66
2019-03-28T01:06:32.669Z,88.76
2019-03-28T01:09:04.169Z,88.70
2019-03-28T01:11:33.403Z,88.81
2019-03-28T01:14:03.354Z,88.79
2019-03-28T01:16:33.886Z,88.72
2019-03-28T01:19:03.254Z,88.66
2019-03-28T01:21:32.702Z,88.75
2019-03-28T01:24:02.928Z,88.69
2019-03-28T01:26:32.622Z,88.61
2019-03-28T01:29:02.437Z,88.61
2019-03-28T01:31:32.352Z,88.56
2019-03-28T01:34:02.465Z,88.58
2019-03-28T01:36:31.909Z,88.54
2019-03-28T01:39:02.117Z,88.56
2019-03-28T01:41:32.441Z,88.63
2019-03-28T01:44:01.976Z,88.67
2019-03-28T01:46:31.595Z,88.70
2019-03-28T01:49:03.583Z,88.70
2019-03-28T01:51:33.346Z,88.70
2019-03-28T01:54:03.330Z,88.68
2019-03-28T01:56:33.634Z,88.61
2019-03-28T01:59:03.509Z,88.56
2019-03-28T02:01:33.205Z,88.57
2019-03-28T02:04:03.816Z,88.60
2019-03-28T02:06:34.190Z,88.55
2019-03-28T02:09:06.114Z,88.56
2019-03-28T02:11:36.643Z,88.65
2019-03-28T02:14:06.466Z,88.75
2019-03-28T02:16:36.375Z,88.69
2019-03-28T02:19:06.235Z,88.72
2019-03-28T02:21:36.199Z,88.74
2019-03-28T02:24:05.813Z,88.73
2019-03-28T02:26:35.598Z,88.71
2019-03-28T02:29:05.501Z,88.72
2019-03-28T02:31:35.594Z,88.79
2019-03-28T02:34:05.051Z,88.94
2019-03-28T02:36:34.496Z,88.85
2019-03-28T02:39:06.542Z,88.90
2019-03-28T02:41:37.298Z,88.81
2019-03-28T02:44:07.076Z,88.77
2019-03-28T02:46:36.616Z,88.67
2019-03-28T02:49:06.384Z,88.68
2019-03-28T02:51:36.338Z,88.75
2019-03-28T02:54:05.847Z,88.73
2019-03-28T02:56:35.714Z,88.76
2019-03-28T02:59:05.564Z,88.72
2019-03-28T03:01:35.036Z,88.71
2019-03-28T03:04:05.090Z,88.70
2019-03-28T03:06:34.808Z,88.74
2019-03-28T03:09:05.871Z,88.77
2019-03-28T03:11:36.835Z,88.68
2019-03-28T03:14:06.430Z,88.68
2019-03-28T03:16:35.993Z,88.87
2019-03-28T03:19:05.872Z,88.82
2019-03-28T03:21:36.046Z,88.77
2019-03-28T03:24:06.159Z,88.77
2019-03-28T03:26:35.679Z,88.71
2019-03-28T03:29:05.632Z,88.75
2019-03-28T03:31:38.315Z,88.82
2019-03-28T03:34:07.926Z,88.74
2019-03-28T03:36:37.473Z,88.75
2019-03-28T03:39:09.202Z,88.73
2019-03-28T03:41:41.305Z,88.87
2019-03-28T03:44:11.137Z,88.92
2019-03-28T03:46:40.691Z,88.88
2019-03-28T03:49:10.335Z,88.86
2019-03-28T03:51:40.652Z,88.85
2019-03-28T03:54:10.615Z,88.80
2019-03-28T03:56:40.050Z,88.79
2019-03-28T03:59:09.696Z,88.87
2019-03-28T04:01:40.997Z,88.91
2019-03-28T04:04:11.205Z,88.88
2019-03-28T04:06:41.231Z,88.83
2019-03-28T04:09:10.874Z,88.78
2019-03-28T04:11:40.386Z,88.80
2019-03-28T04:14:10.283Z,88.79
2019-03-28T04:16:40.136Z,88.88
2019-03-28T04:19:09.568Z,88.91
2019-03-28T04:21:39.025Z,88.86
2019-03-28T04:24:08.784Z,88.88
2019-03-28T04:26:38.733Z,88.88
2019-03-28T04:29:09.157Z,88.86
2019-03-28T04:31:38.663Z,88.88
2019-03-28T04:34:09.555Z,88.87
2019-03-28T04:36:40.852Z,88.84
2019-03-28T04:39:10.888Z,88.82
2019-03-28T04:41:40.748Z,88.87
2019-03-28T04:44:10.268Z,88.90
2019-03-28T04:46:40.973Z,88.84
2019-03-28T04:49:11.200Z,88.81
2019-03-28T04:51:41.456Z,88.82
2019-03-28T04:54:11.152Z,88.84
2019-03-28T04:56:40.996Z,88.86
2019-03-28T04:59:10.987Z,88.86
2019-03-28T05:01:40.718Z,88.87
2019-03-28T05:04:11.016Z,88.92
2019-03-28T05:06:40.413Z,88.93
2019-03-28T05:09:10.349Z,88.89
2019-03-28T05:11:40.527Z,88.96
2019-03-28T05:14:10.253Z,88.98
2019-03-28T05:16:40.060Z,88.95
2019-03-28T05:19:10.712Z,89.00
2019-03-28T05:21:40.492Z,88.97
2019-03-28T05:24:10.240Z,88.94
2019-03-28T05:26:41.364Z,88.95
2019-03-28T05:29:11.084Z,88.92
2019-03-28T05:31:41.007Z,88.96
2019-03-28T05:34:11.059Z,88.99
2019-03-28T05:36:41.047Z,88.94
2019-03-28T05:39:10.822Z,88.93
2019-03-28T05:41:42.357Z,88.86
2019-03-28T05:44:12.075Z,88.89
2019-03-28T05:46:42.057Z,88.88
2019-03-28T05:49:11.897Z,89.03
2019-03-28T05:51:41.772Z,88.98
2019-03-28T05:54:11.655Z,88.98
2019-03-28T05:56:41.485Z,89.00
2019-03-28T05:59:11.568Z,89.01
2019-03-28T06:01:42.642Z,88.95
2019-03-28T06:04:12.417Z,88.93
2019-03-28T06:06:41.781Z,88.91
2019-03-28T06:09:11.140Z,88.97
2019-03-28T06:11:40.973Z,88.94
2019-03-28T06:14:11.059Z,88.88
2019-03-28T06:16:40.741Z,88.90
2019-03-28T06:19:10.763Z,88.92
2019-03-28T06:21:41.339Z,88.91
2019-03-28T06:24:11.667Z,89.03
2019-03-28T06:26:41.459Z,89.01
2019-03-28T06:29:23.150Z,89.04
2019-03-28T06:31:54.565Z,89.09
2019-03-28T06:34:14.511Z,89.13
2019-03-28T06:36:44.108Z,89.14
2019-03-28T06:39:13.857Z,89.15
2019-03-28T06:41:44.449Z,89.11
2019-03-28T06:44:14.955Z,89.14
2019-03-28T06:46:44.376Z,89.17
2019-03-28T06:49:14.070Z,89.05
2019-03-28T06:51:45.980Z,89.02
2019-03-28T06:54:15.382Z,89.07
2019-03-28T06:56:45.401Z,89.16
2019-03-28T06:59:15.143Z,89.13
2019-03-28T07:01:44.964Z,89.08
2019-03-28T07:04:14.583Z,89.10
2019-03-28T07:06:44.756Z,89.17
2019-03-28T07:09:14.667Z,89.16
2019-03-28T07:11:44.267Z,89.09
2019-03-28T07:14:13.779Z,89.11
2019-03-28T07:16:43.794Z,89.07
2019-03-28T07:19:13.850Z,89.03
2019-03-28T07:21:44.331Z,89.03
2019-03-28T07:24:14.308Z,89.01
2019-03-28T07:26:43.948Z,88.98
2019-03-28T07:29:13.465Z,89.01
2019-03-28T07:31:43.162Z,89.04
2019-03-28T07:34:13.658Z,89.02
2019-03-28T07:36:43.413Z,88.97
2019-03-28T07:39:13.488Z,88.93
2019-03-28T07:41:43.164Z,88.85
2019-03-28T07:44:12.714Z,88.79
2019-03-28T07:46:42.773Z,88.87
2019-03-28T07:49:12.479Z,88.89
2019-03-28T07:51:42.630Z,88.88
2019-03-28T07:54:13.330Z,88.96
2019-03-28T07:56:43.179Z,88.85
2019-03-28T07:59:14.821Z,88.82
2019-03-28T08:01:45.288Z,88.80
2019-03-28T08:04:15.054Z,88.85
2019-03-28T08:06:50.001Z,88.75
2019-03-28T08:09:17.706Z,88.61
2019-03-28T08:11:48.620Z,88.54
2019-03-28T08:14:18.378Z,88.50
2019-03-28T08:16:48.724Z,88.54
2019-03-28T08:19:18.554Z,88.56
2019-03-28T08:21:49.550Z,88.53
2019-03-28T08:24:19.199Z,88.50
2019-03-28T08:26:48.778Z,88.38
2019-03-28T08:29:18.824Z,88.42
2019-03-28T08:31:50.206Z,88.44
2019-03-28T08:34:19.788Z,88.33
2019-03-28T08:36:51.422Z,88.21
2019-03-28T08:39:22.258Z,88.14
2019-03-28T08:41:51.923Z,88.05
2019-03-28T08:44:22.816Z,87.92
2019-03-28T08:46:52.691Z,87.98
2019-03-28T08:49:22.131Z,87.82
2019-03-28T08:51:55.209Z,87.69
2019-03-28T08:54:24.782Z,87.51
2019-03-28T08:56:54.740Z,87.41
2019-03-28T08:59:24.752Z,87.13
2019-03-28T09:01:54.973Z,86.94
2019-03-28T09:04:24.541Z,86.82
2019-03-28T09:06:54.313Z,86.50
2019-03-28T09:09:24.397Z,86.32
2019-03-28T09:11:53.916Z,86.12
2019-03-28T09:14:23.935Z,86.04
2019-03-28T09:16:53.955Z,85.93
2019-03-28T09:19:23.413Z,85.90
2019-03-28T09:21:53.171Z,85.85
2019-03-28T09:24:23.712Z,85.49
2019-03-28T09:26:53.302Z,85.34
2019-03-28T09:29:23.068Z,85.35
2019-03-28T09:31:52.813Z,84.93
2019-03-28T09:34:22.627Z,84.93
2019-03-28T09:36:52.574Z,84.70
2019-03-28T09:39:24.839Z,84.62
2019-03-28T09:41:56.203Z,84.71
2019-03-28T09:44:26.481Z,84.63
2019-03-28T09:46:56.389Z,84.22
2019-03-28T09:49:26.416Z,84.17
2019-03-28T09:51:56.338Z,83.91
2019-03-28T09:54:25.757Z,83.83
2019-03-28T09:56:55.187Z,83.69
2019-03-28T09:59:24.894Z,83.79
2019-03-28T10:01:55.581Z,83.77
2019-03-28T10:04:25.142Z,83.91
2019-03-28T10:06:54.879Z,84.07
2019-03-28T10:09:24.547Z,84.06
2019-03-28T10:11:54.251Z,84.28
2019-03-28T10:14:24.155Z,84.52
2019-03-28T10:16:53.880Z,84.52
2019-03-28T10:19:23.282Z,83.98
2019-03-28T10:21:55.719Z,83.84
2019-03-28T10:24:26.392Z,83.28
2019-03-28T10:26:55.929Z,83.61
2019-03-28T10:29:25.383Z,83.99
2019-03-28T10:31:55.241Z,84.00
2019-03-28T10:34:25.405Z,84.11
2019-03-28T10:36:56.325Z,84.24
2019-03-28T10:39:26.236Z,84.16
2019-03-28T10:41:55.704Z,84.44
2019-03-28T10:44:25.468Z,84.24
2019-03-28T10:46:55.152Z,84.24
2019-03-28T10:49:25.129Z,84.59
2019-03-28T10:51:54.671Z,84.51
2019-03-28T10:54:25.878Z,84.77
2019-03-28T10:56:57.866Z,84.91
2019-03-28T10:59:27.171Z,84.89
2019-03-28T11:01:57.186Z,84.93
2019-03-28T11:04:27.083Z,84.56
2019-03-28T11:06:56.716Z,84.68
2019-03-28T11:09:26.272Z,84.72
2019-03-28T11:11:56.135Z,84.77
2019-03-28T11:14:27.853Z,84.79
2019-03-28T11:16:57.681Z,84.98
2019-03-28T11:19:27.418Z,84.92
2019-03-28T11:21:59.242Z,85.10
2019-03-28T11:24:29.159Z,85.19
2019-03-28T11:26:59.023Z,85.23
2019-03-28T11:29:31.322Z,85.10
2019-03-28T11:32:01.189Z,84.99
2019-03-28T11:34:30.778Z,84.95
2019-03-28T11:37:00.366Z,84.79
2019-03-28T11:39:29.972Z,84.95
2019-03-28T11:42:00.515Z,84.80
2019-03-28T11:44:32.771Z,84.94
2019-03-28T11:47:02.686Z,84.75
2019-03-28T11:49:32.314Z,84.43
2019-03-28T11:52:02.042Z,84.23
2019-03-28T11:54:31.467Z,84.06
2019-03-28T11:57:01.841Z,83.92
2019-03-28T11:59:31.660Z,83.67
2019-03-28T12:02:18.562Z,83.59
2019-03-28T12:04:33.143Z,83.63
2019-03-28T12:07:02.617Z,83.54
2019-03-28T12:09:32.356Z,84.01
2019-03-28T12:12:02.146Z,84.26
2019-03-28T12:14:31.625Z,84.50
2019-03-28T12:17:01.063Z,84.75
2019-03-28T12:19:31.075Z,84.81
2019-03-28T12:22:02.868Z,84.70
2019-03-28T12:24:32.283Z,84.57
2019-03-28T12:27:02.003Z,84.52
2019-03-28T12:29:35.494Z,84.36
2019-03-28T12:32:13.306Z,84.12
2019-03-28T12:34:34.763Z,84.20
2019-03-28T12:37:04.420Z,83.77
2019-03-28T12:39:35.216Z,83.86
2019-03-28T12:42:04.834Z,83.82
2019-03-28T12:44:34.570Z,83.55
2019-03-28T12:47:04.161Z,83.56
2019-03-28T12:49:34.008Z,83.33
2019-03-28T12:52:04.648Z,83.01
2019-03-28T12:54:34.057Z,82.92
2019-03-28T12:57:04.895Z,82.90
2019-03-28T12:59:35.185Z,82.89
2019-03-28T13:02:08.055Z,83.06
2019-03-28T13:04:37.548Z,83.21
2019-03-28T13:07:07.567Z,83.23
2019-03-28T13:09:37.151Z,83.22
2019-03-28T13:12:06.892Z,83.30
2019-03-28T13:14:36.591Z,83.79
2019-03-28T13:17:06.190Z,83.90
2019-03-28T13:19:36.008Z,84.08
2019-03-28T13:22:05.560Z,84.24
2019-03-28T13:24:35.485Z,84.31
2019-03-28T13:27:04.998Z,83.41
2019-03-28T13:29:34.856Z,83.62
2019-03-28T13:32:04.581Z,83.55
2019-03-28T13:34:34.085Z,83.29
2019-03-28T13:37:04.097Z,83.55
2019-03-28T13:39:36.692Z,83.62
2019-03-28T13:42:06.394Z,83.43
2019-03-28T13:44:35.964Z,83.62
2019-03-28T13:47:05.649Z,83.85
2019-03-28T13:49:35.042Z,83.80
2019-03-28T13:52:04.994Z,83.86
2019-03-28T13:54:35.152Z,83.83
2019-03-28T13:57:04.809Z,84.03
2019-03-28T13:59:41.544Z,83.74
2019-03-28T14:02:11.173Z,83.55
2019-03-28T14:04:44.929Z,83.71
2019-03-28T14:07:19.005Z,83.84
2019-03-28T14:09:48.677Z,83.77
2019-03-28T14:12:18.069Z,83.91
2019-03-28T14:14:48.540Z,83.94
2019-03-28T14:17:27.151Z,84.05
2019-03-28T14:20:00.342Z,83.99
2019-03-28T14:22:29.779Z,83.91
2019-03-28T14:24:59.701Z,83.71
2019-03-28T14:27:43.332Z,83.65
2019-03-28T14:30:12.958Z,83.54
2019-03-28T14:32:52.582Z,83.37
2019-03-28T14:35:13.924Z,83.57
2019-03-28T14:37:47.772Z,83.68
2019-03-28T14:40:17.806Z,83.60
2019-03-28T14:42:47.786Z,83.78
2019-03-28T14:45:17.407Z,83.59
2019-03-28T14:47:52.724Z,83.57
2019-03-28T14:50:42.254Z,83.54
2019-03-28T14:53:11.720Z,83.70
2019-03-28T14:55:42.147Z,83.52
2019-03-28T14:58:13.588Z,83.62
2019-03-28T15:00:48.019Z,83.42
2019-03-28T15:03:26.231Z,83.83
2019-03-28T15:05:52.936Z,83.86
2019-03-28T15:08:22.611Z,83.81
2019-03-28T15:10:52.482Z,84.00
2019-03-28T15:13:22.201Z,83.93
2019-03-28T15:15:51.734Z,83.80
2019-03-28T15:18:21.210Z,83.72
2019-03-28T15:20:50.789Z,83.64
2019-03-28T15:23:20.503Z,83.62
2019-03-28T15:25:50.123Z,83.56
2019-03-28T15:29:11.275Z,83.75
2019-03-28T15:34:21.686Z,83.41
2019-03-28T15:36:51.618Z,83.63
2019-03-28T15:39:23.169Z,83.62
2019-03-28T15:41:52.915Z,83.73
2019-03-28T15:44:22.964Z,83.77
2019-03-28T15:46:52.374Z,83.82
2019-03-28T15:49:22.021Z,83.83
2019-03-28T15:51:51.900Z,83.66
2019-03-28T15:54:22.204Z,83.66
2019-03-28T15:56:52.220Z,83.98
2019-03-28T15:59:22.080Z,83.74
2019-03-28T16:01:53.015Z,83.44
2019-03-28T16:04:24.830Z,83.54
2019-03-28T16:06:55.845Z,83.58
2019-03-28T16:09:28.400Z,83.76
2019-03-28T16:12:02.717Z,83.89
2019-03-28T16:14:31.146Z,83.85
2019-03-28T16:17:03.665Z,83.81
2019-03-28T16:19:34.854Z,84.03
2019-03-28T16:22:04.808Z,83.83
2019-03-28T16:24:34.845Z,83.86
2019-03-28T16:27:04.607Z,83.90
2019-03-28T16:29:35.584Z,84.04
2019-03-28T16:32:06.917Z,83.74
2019-03-28T16:34:36.765Z,83.85
2019-03-28T16:37:06.726Z,84.00
2019-03-28T16:39:37.854Z,83.98
2019-03-28T16:42:07.821Z,84.01
2019-03-28T16:44:37.785Z,83.89
2019-03-28T16:47:07.681Z,84.07
2019-03-28T16:49:37.952Z,84.11
2019-03-28T16:52:08.787Z,84.20
2019-03-28T16:54:39.088Z,84.26
2019-03-28T16:57:09.110Z,84.35
2019-03-28T16:59:39.032Z,84.06
2019-03-28T17:02:09.333Z,84.28
2019-03-28T17:04:39.329Z,84.03
2019-03-28T17:07:09.792Z,84.09
2019-03-28T17:09:39.852Z,84.18
2019-03-28T17:12:09.816Z,84.25
2019-03-28T17:14:39.383Z,84.08
2019-03-28T17:17:09.500Z,83.90
2019-03-28T17:19:42.554Z,84.18
2019-03-28T17:22:12.096Z,84.27
2019-03-28T17:24:41.985Z,84.35
2019-03-28T17:27:11.982Z,84.37
2019-03-28T17:29:41.765Z,84.23
2019-03-28T17:32:11.728Z,84.15
2019-03-28T17:34:41.713Z,84.14
2019-03-28T17:37:11.630Z,84.05
2019-03-28T17:42:15.947Z,84.10
2019-03-28T17:44:47.167Z,84.25
2019-03-28T17:47:18.048Z,84.19
2019-03-28T17:49:48.044Z,84.12
2019-03-28T17:52:18.895Z,84.33
2019-03-28T17:54:52.704Z,84.25
2019-03-28T17:57:24.072Z,84.29
2019-03-28T17:59:54.266Z,84.28
2019-03-28T18:02:27.128Z,84.32
2019-03-28T18:05:09.205Z,84.04
2019-03-28T18:07:30.900Z,84.17
2019-03-28T18:10:00.737Z,84.35
2019-03-28T18:12:30.268Z,84.38
2019-03-28T18:15:00.301Z,84.32
2019-03-28T18:17:30.436Z,84.23
2019-03-28T18:20:00.545Z,84.24
2019-03-28T18:22:30.729Z,84.21
2019-03-28T18:25:00.730Z,84.21
2019-03-28T18:27:30.841Z,84.19
2019-03-28T18:30:00.903Z,84.19
2019-03-28T18:32:30.896Z,84.01
2019-03-28T18:35:05.482Z,84.10
2019-03-28T18:37:34.480Z,84.06
2019-03-28T18:40:04.649Z,83.99
2019-03-28T18:42:35.248Z,84.19
2019-03-28T18:45:07.915Z,84.13
2019-03-28T18:47:38.526Z,84.22
2019-03-28T18:50:08.891Z,84.10
2019-03-28T18:52:39.339Z,84.00
2019-03-28T18:55:09.703Z,84.09
2019-03-28T18:57:39.831Z,84.18
2019-03-28T19:00:12.500Z,84.31
2019-03-28T19:02:42.618Z,84.18
2019-03-28T19:05:19.550Z,84.14
2019-03-28T19:07:44.368Z,84.24
2019-03-28T19:10:14.347Z,84.26
2019-03-28T19:12:44.319Z,84.32
2019-03-28T19:15:14.276Z,84.35
2019-03-28T19:17:43.951Z,84.28
2019-03-28T19:20:14.455Z,84.34
2019-03-28T19:22:44.554Z,84.35
2019-03-28T19:25:15.663Z,84.35
2019-03-28T19:27:45.312Z,84.30
2019-03-28T19:30:15.781Z,84.38
2019-03-28T19:32:46.143Z,84.37
2019-03-28T19:35:16.265Z,84.41
2019-03-28T19:37:47.229Z,84.42
2019-03-28T19:40:17.727Z,84.52
2019-03-28T19:42:47.717Z,84.48
2019-03-28T19:45:29.675Z,84.50
2019-03-28T19:47:59.453Z,84.41
2019-03-28T19:50:29.756Z,84.44
2019-03-28T19:52:59.677Z,84.46
2019-03-28T19:55:29.345Z,84.41
2019-03-28T19:57:59.106Z,84.38
2019-03-28T20:00:29.242Z,84.39
2019-03-28T20:03:00.563Z,84.38
2019-03-28T20:05:30.719Z,84.11
2019-03-28T20:08:14.454Z,84.23
2019-03-28T20:10:35.325Z,84.33
2019-03-28T20:13:05.540Z,84.32
2019-03-28T20:15:35.699Z,84.29
2019-03-28T20:18:05.600Z,84.26
2019-03-28T20:20:35.919Z,84.36
2019-03-28T20:23:06.725Z,84.40
2019-03-28T20:25:36.633Z,84.41
2019-03-28T20:28:06.808Z,84.29
2019-03-28T20:30:36.786Z,84.34
2019-03-28T20:33:06.656Z,84.32
2019-03-28T20:35:36.472Z,84.39
2019-03-28T20:38:06.349Z,84.41
2019-03-28T20:40:36.163Z,84.42
2019-03-28T20:43:07.989Z,84.45
2019-03-28T20:45:40.903Z,84.51
2019-03-28T20:48:14.772Z,84.46
2019-03-28T20:50:47.216Z,84.46
2019-03-28T20:53:16.832Z,84.47
2019-03-28T20:55:46.510Z,84.43
2019-03-28T20:58:16.261Z,84.48
2019-03-28T21:00:47.859Z,84.54
2019-03-28T21:03:17.647Z,84.52
2019-03-28T21:05:47.524Z,84.50
2019-03-28T21:08:17.215Z,84.47
2019-03-28T21:13:40.147Z,84.50
2019-03-28T21:16:09.712Z,84.47
2019-03-28T21:18:39.229Z,84.52
2019-03-28T21:21:08.869Z,84.51
2019-03-28T21:23:38.862Z,84.54
2019-03-28T21:26:09.130Z,84.50
2019-03-28T21:28:47.379Z,84.50
2019-03-28T21:31:30.737Z,84.56
2019-03-28T21:34:00.147Z,84.58
2019-03-28T21:36:30.511Z,84.43
2019-03-28T21:39:00.730Z,84.46
2019-03-28T21:41:30.628Z,84.57
2019-03-28T21:44:00.233Z,84.63
2019-03-28T21:46:29.854Z,84.63
2019-03-28T21:49:01.888Z,84.63
2019-03-28T21:51:31.562Z,84.65
2019-03-28T21:54:01.168Z,84.71
2019-03-28T21:56:30.897Z,84.70
2019-03-28T21:59:00.402Z,84.69
2019-03-28T22:01:30.074Z,84.68
2019-03-28T22:04:01.988Z,84.64
2019-03-28T22:06:42.468Z,84.69
2019-03-28T22:09:03.013Z,84.69
2019-03-28T22:11:32.851Z,84.69
2019-03-28T22:14:17.087Z,84.69
2019-03-28T22:20:30.419Z,84.74
2019-03-28T22:30:22.680Z,84.74
2019-03-28T22:36:41.153Z,84.73
2019-03-28T22:43:06.954Z,84.79
2019-03-28T22:49:09.243Z,84.84
2019-03-28T22:58:38.601Z,84.81
2019-03-28T23:05:19.495Z,84.72
2019-03-28T23:11:52.566Z,84.58
2019-03-28T23:18:15.722Z,84.71
2019-03-28T23:28:38.093Z,84.84
2019-03-28T23:35:08.067Z,84.67
2019-03-28T23:41:01.153Z,84.65
2019-03-28T23:43:30.546Z,84.74
2019-03-28T23:46:03.020Z,84.77
2019-03-28T23:48:41.774Z,84.78
2019-03-28T23:51:11.351Z,84.80
2019-03-28T23:53:41.222Z,84.87
2019-03-28T23:59:40.097Z,84.86
